sensor_id;sensor_type;location;lat;lon;timestamp;pressure;altitude;pressure_sealevel;temperature;humidity
1616;BME280;801;47.982;7.810;2023-01-26T00:00:44;99214.44;;;2.17;100.00
1616;BME280;801;47.982;7.810;2023-01-26T00:03:11;99211.31;;;1.92;100.00
1616;BME280;801;47.982;7.810;2023-01-26T00:05:37;99205.34;;;2.26;100.00
1616;BME280;801;47.982;7.810;2023-01-26T00:08:04;99202.16;;;2.37;100.00
1616;BME280;801;47.982;7.810;2023-01-26T00:10:31;99202.50;;;2.06;100.00
1616;BME280;801;47.982;7.810;2023-01-26T00:12:57;99202.47;;;2.27;100.00
1616;BME280;801;47.982;7.810;2023-01-26T00:15:25;99193.00;;;2.18;100.00
1616;BME280;801;47.982;7.810;2023-01-26T00:17:52;99192.41;;;1.95;100.00
1616;BME280;801;47.982;7.810;2023-01-26T00:20:18;99187.63;;;1.83;100.00
1616;BME280;801;47.982;7.810;2023-01-26T00:22:45;99182.44;;;1.97;100.00
1616;BME280;801;47.982;7.810;2023-01-26T00:25:11;99188.16;;;2.00;100.00
1616;BME280;801;47.982;7.810;2023-01-26T00:27:38;99181.94;;;1.86;100.00
1616;BME280;801;47.982;7.810;2023-01-26T00:30:05;99185.00;;;2.12;100.00
1616;BME280;801;47.982;7.810;2023-01-26T00:32:35;99170.81;;;2.19;100.00
1616;BME280;801;47.982;7.810;2023-01-26T00:35:02;99178.13;;;1.96;100.00
1616;BME280;801;47.982;7.810;2023-01-26T00:37:29;99167.06;;;2.14;100.00
1616;BME280;801;47.982;7.810;2023-01-26T00:39:55;99165.44;;;1.91;100.00
1616;BME280;801;47.982;7.810;2023-01-26T00:42:22;99160.38;;;1.53;100.00
1616;BME280;801;47.982;7.810;2023-01-26T00:44:49;99167.00;;;2.07;100.00
1616;BME280;801;47.982;7.810;2023-01-26T00:47:17;99161.47;;;2.02;100.00
1616;BME280;801;47.982;7.810;2023-01-26T00:49:45;99161.03;;;1.98;100.00
1616;BME280;801;47.982;7.810;2023-01-26T00:52:12;99152.19;;;1.91;100.00
1616;BME280;801;47.982;7.810;2023-01-26T00:54:38;99154.88;;;2.19;100.00
1616;BME280;801;47.982;7.810;2023-01-26T00:57:05;99144.53;;;2.03;100.00
1616;BME280;801;47.982;7.810;2023-01-26T00:59:31;99137.44;;;1.82;100.00
1616;BME280;801;47.982;7.810;2023-01-26T01:01:58;99138.56;;;1.94;100.00
1616;BME280;801;47.982;7.810;2023-01-26T01:04:27;99139.28;;;1.81;100.00
1616;BME280;801;47.982;7.810;2023-01-26T01:06:56;99133.84;;;1.47;100.00
1616;BME280;801;47.982;7.810;2023-01-26T01:09:22;99128.03;;;1.36;100.00
1616;BME280;801;47.982;7.810;2023-01-26T01:11:49;99131.94;;;1.62;100.00
1616;BME280;801;47.982;7.810;2023-01-26T01:14:15;99130.00;;;1.71;100.00
1616;BME280;801;47.982;7.810;2023-01-26T01:16:42;99133.81;;;1.90;100.00
1616;BME280;801;47.982;7.810;2023-01-26T01:19:12;99137.47;;;2.10;100.00
1616;BME280;801;47.982;7.810;2023-01-26T01:21:39;99133.81;;;1.90;100.00
1616;BME280;801;47.982;7.810;2023-01-26T01:24:07;99126.13;;;1.95;100.00
1616;BME280;801;47.982;7.810;2023-01-26T01:26:34;99127.69;;;1.61;100.00
1616;BME280;801;47.982;7.810;2023-01-26T01:29:00;99122.00;;;1.85;100.00
1616;BME280;801;47.982;7.810;2023-01-26T01:31:27;99122.56;;;2.09;100.00
1616;BME280;801;47.982;7.810;2023-01-26T01:33:54;99126.09;;;2.16;100.00
1616;BME280;801;47.982;7.810;2023-01-26T01:36:22;99117.03;;;2.04;100.00
1616;BME280;801;47.982;7.810;2023-01-26T01:38:49;99114.25;;;2.12;100.00
1616;BME280;801;47.982;7.810;2023-01-26T01:41:19;99118.44;;;2.00;100.00
1616;BME280;801;47.982;7.810;2023-01-26T01:43:46;99116.09;;;2.18;100.00
1616;BME280;801;47.982;7.810;2023-01-26T01:46:22;99109.84;;;1.98;100.00
1616;BME280;801;47.982;7.810;2023-01-26T01:48:55;99117.25;;;2.09;100.00
1616;BME280;801;47.982;7.810;2023-01-26T01:51:30;99108.31;;;2.10;100.00
1616;BME280;801;47.982;7.810;2023-01-26T01:54:01;99106.25;;;1.84;100.00
1616;BME280;801;47.982;7.810;2023-01-26T01:56:31;99099.75;;;1.65;100.00
1616;BME280;801;47.982;7.810;2023-01-26T01:59:01;99096.63;;;1.33;100.00
1616;BME280;801;47.982;7.810;2023-01-26T02:01:28;99104.81;;;1.81;100.00
1616;BME280;801;47.982;7.810;2023-01-26T02:03:58;99106.19;;;1.56;100.00
1616;BME280;801;47.982;7.810;2023-01-26T02:06:28;99112.63;;;1.90;100.00
1616;BME280;801;47.982;7.810;2023-01-26T02:08:56;99107.59;;;1.30;100.00
1616;BME280;801;47.982;7.810;2023-01-26T02:11:26;99098.03;;;2.00;100.00
1616;BME280;801;47.982;7.810;2023-01-26T02:13:55;99100.59;;;2.15;100.00
1616;BME280;801;47.982;7.810;2023-01-26T02:16:23;99100.84;;;1.71;100.00
1616;BME280;801;47.982;7.810;2023-01-26T02:18:50;99096.59;;;1.98;100.00
1616;BME280;801;47.982;7.810;2023-01-26T02:21:18;99100.53;;;2.08;100.00
1616;BME280;801;47.982;7.810;2023-01-26T02:23:52;99099.72;;;1.58;100.00
1616;BME280;801;47.982;7.810;2023-01-26T02:26:24;99101.38;;;1.59;100.00
1616;BME280;801;47.982;7.810;2023-01-26T02:28:51;99094.34;;;1.52;100.00
1616;BME280;801;47.982;7.810;2023-01-26T02:31:19;99093.03;;;1.62;100.00
1616;BME280;801;47.982;7.810;2023-01-26T02:33:47;99094.59;;;1.78;100.00
1616;BME280;801;47.982;7.810;2023-01-26T02:36:18;99095.44;;;1.79;100.00
1616;BME280;801;47.982;7.810;2023-01-26T02:38:50;99079.47;;;1.72;100.00
1616;BME280;801;47.982;7.810;2023-01-26T02:41:18;99079.38;;;1.22;100.00
1616;BME280;801;47.982;7.810;2023-01-26T02:44:01;99071.00;;;1.40;100.00
1616;BME280;801;47.982;7.810;2023-01-26T02:46:28;99078.78;;;1.63;100.00
1616;BME280;801;47.982;7.810;2023-01-26T02:48:55;99073.94;;;1.45;100.00
1616;BME280;801;47.982;7.810;2023-01-26T02:51:39;99070.81;;;1.20;100.00
1616;BME280;801;47.982;7.810;2023-01-26T02:54:05;99067.84;;;1.52;100.00
1616;BME280;801;47.982;7.810;2023-01-26T02:56:32;99065.28;;;1.37;100.00
1616;BME280;801;47.982;7.810;2023-01-26T02:58:59;99064.97;;;1.47;100.00
1616;BME280;801;47.982;7.810;2023-01-26T03:01:26;99058.16;;;1.37;100.00
1616;BME280;801;47.982;7.810;2023-01-26T03:03:52;99055.91;;;1.34;100.00
1616;BME280;801;47.982;7.810;2023-01-26T03:06:18;99053.69;;;1.38;100.00
1616;BME280;801;47.982;7.810;2023-01-26T03:08:45;99062.53;;;1.09;100.00
1616;BME280;801;47.982;7.810;2023-01-26T03:11:11;99060.91;;;1.08;100.00
1616;BME280;801;47.982;7.810;2023-01-26T03:13:38;99058.63;;;1.04;100.00
1616;BME280;801;47.982;7.810;2023-01-26T03:16:07;99056.97;;;1.18;100.00
1616;BME280;801;47.982;7.810;2023-01-26T03:18:36;99046.69;;;0.94;100.00
1616;BME280;801;47.982;7.810;2023-01-26T03:21:20;99045.72;;;0.95;100.00
1616;BME280;801;47.982;7.810;2023-01-26T03:24:07;99051.06;;;1.01;100.00
1616;BME280;801;47.982;7.810;2023-01-26T03:26:52;99050.19;;;0.94;100.00
1616;BME280;801;47.982;7.810;2023-01-26T03:29:36;99049.56;;;0.92;100.00
1616;BME280;801;47.982;7.810;2023-01-26T03:32:04;99037.31;;;0.91;100.00
1616;BME280;801;47.982;7.810;2023-01-26T03:34:31;99041.06;;;0.97;100.00
1616;BME280;801;47.982;7.810;2023-01-26T03:36:57;99043.84;;;1.10;100.00
1616;BME280;801;47.982;7.810;2023-01-26T03:39:24;99044.00;;;0.87;100.00
1616;BME280;801;47.982;7.810;2023-01-26T03:42:08;99051.59;;;1.12;100.00
1616;BME280;801;47.982;7.810;2023-01-26T03:44:52;99048.81;;;1.20;100.00
1616;BME280;801;47.982;7.810;2023-01-26T03:47:38;99050.97;;;1.10;100.00
1616;BME280;801;47.982;7.810;2023-01-26T03:50:22;99054.03;;;1.13;100.00
1616;BME280;801;47.982;7.810;2023-01-26T03:53:13;99039.38;;;1.32;100.00
1616;BME280;801;47.982;7.810;2023-01-26T03:55:57;99046.13;;;1.35;100.00
1616;BME280;801;47.982;7.810;2023-01-26T03:58:43;99046.31;;;1.33;100.00
1616;BME280;801;47.982;7.810;2023-01-26T04:01:10;99050.00;;;1.60;100.00
1616;BME280;801;47.982;7.810;2023-01-26T04:03:48;99054.66;;;1.58;100.00
1616;BME280;801;47.982;7.810;2023-01-26T04:06:33;99048.81;;;1.20;100.00
1616;BME280;801;47.982;7.810;2023-01-26T04:09:18;99049.69;;;1.27;100.00
1616;BME280;801;47.982;7.810;2023-01-26T04:11:45;99046.13;;;1.35;100.00
1616;BME280;801;47.982;7.810;2023-01-26T04:14:12;99042.84;;;1.33;100.00
1616;BME280;801;47.982;7.810;2023-01-26T04:16:56;99039.38;;;1.32;100.00
1616;BME280;801;47.982;7.810;2023-01-26T04:19:42;99036.22;;;1.43;100.00
1616;BME280;801;47.982;7.810;2023-01-26T04:22:26;99040.63;;;1.15;100.00
1616;BME280;801;47.982;7.810;2023-01-26T04:24:52;99037.53;;;1.11;100.00
1616;BME280;801;47.982;7.810;2023-01-26T04:27:19;99030.72;;;1.02;100.00
1616;BME280;801;47.982;7.810;2023-01-26T04:29:45;99043.34;;;1.21;100.00
1616;BME280;801;47.982;7.810;2023-01-26T04:32:12;99030.53;;;1.03;100.00
1616;BME280;801;47.982;7.810;2023-01-26T04:34:38;99026.94;;;1.33;100.00
1616;BME280;801;47.982;7.810;2023-01-26T04:37:07;99016.81;;;1.15;100.00
1616;BME280;801;47.982;7.810;2023-01-26T04:39:34;99012.91;;;1.32;100.00
1616;BME280;801;47.982;7.810;2023-01-26T04:42:01;99014.25;;;0.85;100.00
1616;BME280;801;47.982;7.810;2023-01-26T04:44:27;99011.31;;;1.16;100.00
1616;BME280;801;47.982;7.810;2023-01-26T04:46:53;99003.06;;;0.68;100.00
1616;BME280;801;47.982;7.810;2023-01-26T04:49:20;99002.88;;;1.06;100.00
1616;BME280;801;47.982;7.810;2023-01-26T04:51:47;99004.50;;;0.86;100.00
1616;BME280;801;47.982;7.810;2023-01-26T04:54:14;99003.69;;;1.28;100.00
1616;BME280;801;47.982;7.810;2023-01-26T04:56:41;99002.97;;;0.98;100.00
1616;BME280;801;47.982;7.810;2023-01-26T04:59:08;99006.09;;;1.23;100.00
1616;BME280;801;47.982;7.810;2023-01-26T05:01:35;99000.47;;;1.11;100.00
1616;BME280;801;47.982;7.810;2023-01-26T05:04:03;98995.69;;;0.64;100.00
1616;BME280;801;47.982;7.810;2023-01-26T05:06:30;99003.28;;;0.88;100.00
1616;BME280;801;47.982;7.810;2023-01-26T05:08:57;98993.09;;;0.85;100.00
1616;BME280;801;47.982;7.810;2023-01-26T05:11:25;98995.00;;;1.13;100.00
1616;BME280;801;47.982;7.810;2023-01-26T05:13:51;98987.06;;;1.13;100.00
1616;BME280;801;47.982;7.810;2023-01-26T05:16:18;98993.47;;;1.25;100.00
1616;BME280;801;47.982;7.810;2023-01-26T05:18:44;98992.78;;;0.95;100.00
1616;BME280;801;47.982;7.810;2023-01-26T05:21:11;98998.66;;;1.12;100.00
1616;BME280;801;47.982;7.810;2023-01-26T05:23:37;99003.38;;;0.95;100.00
1616;BME280;801;47.982;7.810;2023-01-26T05:26:05;99001.50;;;1.10;100.00
1616;BME280;801;47.982;7.810;2023-01-26T05:28:34;99002.59;;;0.79;100.00
1616;BME280;801;47.982;7.810;2023-01-26T05:31:00;99004.84;;;0.82;100.00
1616;BME280;801;47.982;7.810;2023-01-26T05:33:27;99008.91;;;1.00;100.00
1616;BME280;801;47.982;7.810;2023-01-26T05:35:53;99002.81;;;1.21;100.00
1616;BME280;801;47.982;7.810;2023-01-26T05:38:20;99001.16;;;1.20;100.00
1616;BME280;801;47.982;7.810;2023-01-26T05:40:46;99001.28;;;0.90;100.00
1616;BME280;801;47.982;7.810;2023-01-26T05:43:13;99011.00;;;1.04;100.00
1616;BME280;801;47.982;7.810;2023-01-26T05:45:41;99015.78;;;1.16;100.00
1616;BME280;801;47.982;7.810;2023-01-26T05:48:07;99004.84;;;1.19;100.00
1616;BME280;801;47.982;7.810;2023-01-26T05:50:34;99005.00;;;0.96;100.00
1616;BME280;801;47.982;7.810;2023-01-26T05:53:00;99008.78;;;0.87;100.00
1616;BME280;801;47.982;7.810;2023-01-26T05:55:28;99011.06;;;1.11;100.00
1616;BME280;801;47.982;7.810;2023-01-26T05:57:54;99006.34;;;1.28;100.00
1616;BME280;801;47.982;7.810;2023-01-26T06:00:21;99009.09;;;1.41;100.00
1616;BME280;801;47.982;7.810;2023-01-26T06:02:49;99011.56;;;1.21;100.00
1616;BME280;801;47.982;7.810;2023-01-26T06:05:16;99012.88;;;1.11;100.00
1616;BME280;801;47.982;7.810;2023-01-26T06:07:42;99010.47;;;1.16;100.00
1616;BME280;801;47.982;7.810;2023-01-26T06:10:10;99008.09;;;0.99;100.00
1616;BME280;801;47.982;7.810;2023-01-26T06:12:36;99006.16;;;1.30;100.00
1616;BME280;801;47.982;7.810;2023-01-26T06:15:04;99007.84;;;1.16;100.00
1616;BME280;801;47.982;7.810;2023-01-26T06:17:31;98999.97;;;1.22;100.00
1616;BME280;801;47.982;7.810;2023-01-26T06:19:59;99001.78;;;1.22;100.00
1616;BME280;801;47.982;7.810;2023-01-26T06:22:25;99005.44;;;1.42;100.00
1616;BME280;801;47.982;7.810;2023-01-26T06:24:52;98997.75;;;1.26;100.00
1616;BME280;801;47.982;7.810;2023-01-26T06:27:19;98997.13;;;1.45;100.00
1616;BME280;801;47.982;7.810;2023-01-26T06:29:45;98998.88;;;0.95;100.00
1616;BME280;801;47.982;7.810;2023-01-26T06:32:12;98995.81;;;1.13;100.00
1616;BME280;801;47.982;7.810;2023-01-26T06:34:39;98986.75;;;0.65;100.00
1616;BME280;801;47.982;7.810;2023-01-26T06:37:07;98986.31;;;0.61;100.00
1616;BME280;801;47.982;7.810;2023-01-26T06:39:34;98988.53;;;1.00;100.00
1616;BME280;801;47.982;7.810;2023-01-26T06:42:00;98987.63;;;1.08;100.00
1616;BME280;801;47.982;7.810;2023-01-26T06:44:27;98989.94;;;1.18;100.00
1616;BME280;801;47.982;7.810;2023-01-26T06:46:53;98990.69;;;0.90;100.00
1616;BME280;801;47.982;7.810;2023-01-26T06:49:20;98984.47;;;0.76;100.00
1616;BME280;801;47.982;7.810;2023-01-26T06:51:51;98987.72;;;0.78;100.00
1616;BME280;801;47.982;7.810;2023-01-26T06:54:22;98986.97;;;0.48;100.00
1616;BME280;801;47.982;7.810;2023-01-26T06:56:49;98986.66;;;0.58;100.00
1616;BME280;801;47.982;7.810;2023-01-26T06:59:15;98983.47;;;0.62;100.00
1616;BME280;801;47.982;7.810;2023-01-26T07:01:44;98990.16;;;0.58;100.00
1616;BME280;801;47.982;7.810;2023-01-26T07:04:11;98996.59;;;0.71;100.00
1616;BME280;801;47.982;7.810;2023-01-26T07:06:37;98995.97;;;0.69;100.00
1616;BME280;801;47.982;7.810;2023-01-26T07:09:04;98994.91;;;0.85;100.00
1616;BME280;801;47.982;7.810;2023-01-26T07:11:32;98992.97;;;0.72;100.00
1616;BME280;801;47.982;7.810;2023-01-26T07:13:59;98992.19;;;0.41;100.00
1616;BME280;801;47.982;7.810;2023-01-26T07:16:25;98984.97;;;0.50;100.00
1616;BME280;801;47.982;7.810;2023-01-26T07:18:52;98993.91;;;0.86;100.00
1616;BME280;801;47.982;7.810;2023-01-26T07:21:20;98998.25;;;0.72;100.00
1616;BME280;801;47.982;7.810;2023-01-26T07:23:48;98998.59;;;0.69;100.00
1616;BME280;801;47.982;7.810;2023-01-26T07:26:15;98999.25;;;0.71;100.00
1616;BME280;801;47.982;7.810;2023-01-26T07:28:42;98999.41;;;0.69;100.00
1616;BME280;801;47.982;7.810;2023-01-26T07:31:10;98998.25;;;0.72;100.00
1616;BME280;801;47.982;7.810;2023-01-26T07:33:37;99003.38;;;0.58;100.00
1616;BME280;801;47.982;7.810;2023-01-26T07:36:04;99009.25;;;0.75;100.00
1616;BME280;801;47.982;7.810;2023-01-26T07:38:31;99010.75;;;0.99;100.00
1616;BME280;801;47.982;7.810;2023-01-26T07:40:58;99006.81;;;0.74;100.00
1616;BME280;801;47.982;7.810;2023-01-26T07:43:31;99008.59;;;0.88;100.00
1616;BME280;801;47.982;7.810;2023-01-26T07:45:59;99011.47;;;0.72;100.00
1616;BME280;801;47.982;7.810;2023-01-26T07:48:26;99011.13;;;0.96;100.00
1616;BME280;801;47.982;7.810;2023-01-26T07:50:57;99010.06;;;1.12;100.00
1616;BME280;801;47.982;7.810;2023-01-26T07:53:24;99014.13;;;0.72;100.00
1616;BME280;801;47.982;7.810;2023-01-26T07:55:54;99015.88;;;0.86;100.00
1616;BME280;801;47.982;7.810;2023-01-26T07:58:20;99009.03;;;0.92;100.00
1616;BME280;801;47.982;7.810;2023-01-26T08:00:47;99010.19;;;0.68;100.00
1616;BME280;801;47.982;7.810;2023-01-26T08:03:15;99014.41;;;1.20;100.00
1616;BME280;801;47.982;7.810;2023-01-26T08:05:41;99014.75;;;0.95;100.00
1616;BME280;801;47.982;7.810;2023-01-26T08:08:08;99011.97;;;1.18;100.00
1616;BME280;801;47.982;7.810;2023-01-26T08:10:35;99011.63;;;1.28;100.00
1616;BME280;801;47.982;7.810;2023-01-26T08:13:01;99011.06;;;0.90;100.00
1616;BME280;801;47.982;7.810;2023-01-26T08:15:29;99012.44;;;1.07;100.00
1616;BME280;801;47.982;7.810;2023-01-26T08:17:55;99014.59;;;1.18;100.00
1616;BME280;801;47.982;7.810;2023-01-26T08:20:23;99011.88;;;1.33;100.00
1616;BME280;801;47.982;7.810;2023-01-26T08:22:50;99012.63;;;1.06;100.00
1616;BME280;801;47.982;7.810;2023-01-26T08:25:16;99005.00;;;0.96;100.00
1616;BME280;801;47.982;7.810;2023-01-26T08:27:42;99003.41;;;0.80;100.00
1616;BME280;801;47.982;7.810;2023-01-26T08:30:10;98998.13;;;1.01;100.00
1616;BME280;801;47.982;7.810;2023-01-26T08:32:37;99008.84;;;1.15;100.00
1616;BME280;801;47.982;7.810;2023-01-26T08:35:04;99011.97;;;1.18;100.00
1616;BME280;801;47.982;7.810;2023-01-26T08:37:32;99010.00;;;1.06;100.00
1616;BME280;801;47.982;7.810;2023-01-26T08:39:59;99008.28;;;1.19;100.00
1616;BME280;801;47.982;7.810;2023-01-26T08:42:25;99007.47;;;0.97;100.00
1616;BME280;801;47.982;7.810;2023-01-26T08:44:52;99004.56;;;0.92;100.00
1616;BME280;801;47.982;7.810;2023-01-26T08:47:18;99011.88;;;0.90;100.00
1616;BME280;801;47.982;7.810;2023-01-26T08:49:45;99009.72;;;0.79;100.00
1616;BME280;801;47.982;7.810;2023-01-26T08:52:12;99005.00;;;0.96;100.00
1616;BME280;801;47.982;7.810;2023-01-26T08:54:40;99010.88;;;1.13;100.00
1616;BME280;801;47.982;7.810;2023-01-26T08:57:06;99006.13;;;0.50;100.00
1616;BME280;801;47.982;7.810;2023-01-26T08:59:33;99009.09;;;0.62;100.00
1616;BME280;801;47.982;7.810;2023-01-26T09:01:59;99010.75;;;0.63;100.00
1616;BME280;801;47.982;7.810;2023-01-26T09:04:26;99014.03;;;1.01;100.00
1616;BME280;801;47.982;7.810;2023-01-26T09:06:52;99017.38;;;1.10;100.00
1616;BME280;801;47.982;7.810;2023-01-26T09:09:19;99010.00;;;1.06;100.00
1616;BME280;801;47.982;7.810;2023-01-26T09:11:47;99013.41;;;1.21;100.00
1616;BME280;801;47.982;7.810;2023-01-26T09:14:13;99011.81;;;0.83;100.00
1616;BME280;801;47.982;7.810;2023-01-26T09:16:40;99012.84;;;0.89;100.00
1616;BME280;801;47.982;7.810;2023-01-26T09:19:07;99012.34;;;0.79;100.00
1616;BME280;801;47.982;7.810;2023-01-26T09:21:33;99019.41;;;0.72;100.00
1616;BME280;801;47.982;7.810;2023-01-26T09:24:00;99026.47;;;0.86;100.00
1616;BME280;801;47.982;7.810;2023-01-26T09:26:27;99017.75;;;0.71;100.00
1616;BME280;801;47.982;7.810;2023-01-26T09:28:56;99023.69;;;0.58;100.00
1616;BME280;801;47.982;7.810;2023-01-26T09:31:22;99031.69;;;0.79;100.00
1616;BME280;801;47.982;7.810;2023-01-26T09:33:49;99030.41;;;0.75;100.00
1616;BME280;801;47.982;7.810;2023-01-26T09:36:16;99039.13;;;0.54;100.00
1616;BME280;801;47.982;7.810;2023-01-26T09:38:42;99032.31;;;0.96;100.00
1616;BME280;801;47.982;7.810;2023-01-26T09:41:19;99031.41;;;1.11;100.00
1616;BME280;801;47.982;7.810;2023-01-26T09:43:52;99035.44;;;0.85;100.00
1616;BME280;801;47.982;7.810;2023-01-26T09:46:23;99039.31;;;0.89;100.00
1616;BME280;801;47.982;7.810;2023-01-26T09:49:01;99027.38;;;0.57;100.00
1616;BME280;801;47.982;7.810;2023-01-26T09:51:32;99033.28;;;0.74;100.00
1616;BME280;801;47.982;7.810;2023-01-26T09:54:02;99035.69;;;0.90;100.00
1616;BME280;801;47.982;7.810;2023-01-26T09:56:30;99031.16;;;1.06;100.00
1616;BME280;801;47.982;7.810;2023-01-26T09:59:00;99035.69;;;0.90;100.00
1616;BME280;801;47.982;7.810;2023-01-26T10:01:35;99026.88;;;1.04;100.00
1616;BME280;801;47.982;7.810;2023-01-26T10:04:11;99035.81;;;1.25;100.00
1616;BME280;801;47.982;7.810;2023-01-26T10:06:39;99033.75;;;0.99;100.00
1616;BME280;801;47.982;7.810;2023-01-26T10:09:13;99024.00;;;0.48;100.00
1616;BME280;801;47.982;7.810;2023-01-26T10:11:43;99030.41;;;0.75;100.00
1616;BME280;801;47.982;7.810;2023-01-26T10:14:12;99029.03;;;0.94;100.00
1616;BME280;801;47.982;7.810;2023-01-26T10:16:44;99022.41;;;0.69;100.00
1616;BME280;801;47.982;7.810;2023-01-26T10:19:16;99025.06;;;0.69;100.00
1616;BME280;801;47.982;7.810;2023-01-26T10:21:48;99027.41;;;1.15;100.00
1616;BME280;801;47.982;7.810;2023-01-26T10:24:20;99032.88;;;0.92;100.00
1616;BME280;801;47.982;7.810;2023-01-26T10:26:48;99026.63;;;0.63;100.00
1616;BME280;801;47.982;7.810;2023-01-26T10:29:15;99024.63;;;0.65;100.00
1616;BME280;801;47.982;7.810;2023-01-26T10:31:44;99020.66;;;0.76;100.00
1616;BME280;801;47.982;7.810;2023-01-26T10:34:13;99022.44;;;0.90;100.00
1616;BME280;801;47.982;7.810;2023-01-26T10:36:42;99024.78;;;0.78;100.00
1616;BME280;801;47.982;7.810;2023-01-26T10:39:11;99019.41;;;0.72;100.00
1616;BME280;801;47.982;7.810;2023-01-26T10:41:38;99017.97;;;0.91;100.00
1616;BME280;801;47.982;7.810;2023-01-26T10:44:21;99017.41;;;0.74;100.00
1616;BME280;801;47.982;7.810;2023-01-26T10:47:06;99017.16;;;0.90;100.00
1616;BME280;801;47.982;7.810;2023-01-26T10:49:39;99017.44;;;1.17;100.00
1616;BME280;801;47.982;7.810;2023-01-26T10:52:10;99012.88;;;1.11;100.00
1616;BME280;801;47.982;7.810;2023-01-26T10:54:39;99009.72;;;1.00;100.00
1616;BME280;801;47.982;7.810;2023-01-26T10:57:15;99007.03;;;1.37;100.00
1616;BME280;801;47.982;7.810;2023-01-26T10:59:48;99008.41;;;0.90;100.00
1616;BME280;801;47.982;7.810;2023-01-26T11:02:23;99003.63;;;0.78;100.00
1616;BME280;801;47.982;7.810;2023-01-26T11:07:43;99000.41;;;1.04;100.00
1616;BME280;801;47.982;7.810;2023-01-26T11:10:32;98999.13;;;0.79;100.00
1616;BME280;801;47.982;7.810;2023-01-26T11:13:10;98989.81;;;1.26;100.00
1616;BME280;801;47.982;7.810;2023-01-26T11:15:39;98993.47;;;1.03;100.00
1616;BME280;801;47.982;7.810;2023-01-26T11:18:14;98978.72;;;1.16;100.00
1616;BME280;801;47.982;7.810;2023-01-26T11:20:55;98981.81;;;1.19;100.00
1616;BME280;801;47.982;7.810;2023-01-26T11:23:31;98978.72;;;0.73;100.00
1616;BME280;801;47.982;7.810;2023-01-26T11:26:19;98987.41;;;0.88;100.00
1616;BME280;801;47.982;7.810;2023-01-26T11:29:00;98981.06;;;1.04;100.00
1616;BME280;801;47.982;7.810;2023-01-26T11:31:40;98984.88;;;0.80;100.00
1616;BME280;801;47.982;7.810;2023-01-26T11:34:21;98984.00;;;1.16;100.00
1616;BME280;801;47.982;7.810;2023-01-26T11:36:58;98977.38;;;1.27;100.00
1616;BME280;801;47.982;7.810;2023-01-26T11:39:30;98970.59;;;0.96;100.00
1616;BME280;801;47.982;7.810;2023-01-26T11:42:11;98978.22;;;1.06;100.00
1616;BME280;801;47.982;7.810;2023-01-26T11:44:49;98970.94;;;1.08;100.00
1616;BME280;801;47.982;7.810;2023-01-26T11:47:28;98977.53;;;0.97;100.00
1616;BME280;801;47.982;7.810;2023-01-26T11:50:16;98967.81;;;0.82;100.00
1616;BME280;801;47.982;7.810;2023-01-26T11:52:53;98967.66;;;1.06;100.00
1616;BME280;801;47.982;7.810;2023-01-26T11:55:45;98968.72;;;0.90;100.00
1616;BME280;801;47.982;7.810;2023-01-26T11:58:26;98963.63;;;1.10;100.00
1616;BME280;801;47.982;7.810;2023-01-26T12:00:55;98959.34;;;1.37;100.00
1616;BME280;801;47.982;7.810;2023-01-26T12:03:26;98952.94;;;1.24;100.00
1616;BME280;801;47.982;7.810;2023-01-26T12:06:00;98948.84;;;1.22;100.00
1616;BME280;801;47.982;7.810;2023-01-26T12:08:32;98951.66;;;1.20;100.00
1616;BME280;801;47.982;7.810;2023-01-26T12:11:05;98938.81;;;1.17;100.00
1616;BME280;801;47.982;7.810;2023-01-26T12:13:54;98935.00;;;0.98;100.00
1616;BME280;801;47.982;7.810;2023-01-26T12:16:33;98941.25;;;1.12;100.00
1616;BME280;801;47.982;7.810;2023-01-26T12:19:08;98934.53;;;1.44;100.00
1616;BME280;801;47.982;7.810;2023-01-26T12:21:42;98936.09;;;1.32;100.00
1616;BME280;801;47.982;7.810;2023-01-26T12:24:13;98933.69;;;1.37;100.00
1616;BME280;801;47.982;7.810;2023-01-26T12:26:44;98926.84;;;1.00;100.00
1616;BME280;801;47.982;7.810;2023-01-26T12:29:14;98928.69;;;1.21;100.00
1616;BME280;801;47.982;7.810;2023-01-26T12:31:48;98919.69;;;1.43;100.00
1616;BME280;801;47.982;7.810;2023-01-26T12:34:21;98914.56;;;1.14;100.00
1616;BME280;801;47.982;7.810;2023-01-26T12:36:59;98909.13;;;1.22;100.00
1616;BME280;801;47.982;7.810;2023-01-26T12:39:32;98905.69;;;1.50;100.00
1616;BME280;801;47.982;7.810;2023-01-26T12:42:05;98909.47;;;1.40;100.00
1616;BME280;801;47.982;7.810;2023-01-26T12:44:38;98902.84;;;1.23;100.00
1616;BME280;801;47.982;7.810;2023-01-26T12:47:12;98909.03;;;1.37;100.00
1616;BME280;801;47.982;7.810;2023-01-26T12:49:45;98900.56;;;1.48;100.00
1616;BME280;801;47.982;7.810;2023-01-26T12:52:22;98897.66;;;1.15;100.00
1616;BME280;801;47.982;7.810;2023-01-26T12:54:55;98901.66;;;1.04;100.00
1616;BME280;801;47.982;7.810;2023-01-26T12:57:29;98887.53;;;1.18;100.00
1616;BME280;801;47.982;7.810;2023-01-26T13:00:03;98890.53;;;1.15;100.00
1616;BME280;801;47.982;7.810;2023-01-26T13:02:32;98884.09;;;1.53;100.00
1616;BME280;801;47.982;7.810;2023-01-26T13:05:01;98888.97;;;1.56;100.00
1616;BME280;801;47.982;7.810;2023-01-26T13:07:33;98892.81;;;1.81;100.00
1616;BME280;801;47.982;7.810;2023-01-26T13:13:27;98892.81;;;1.18;100.00
1616;BME280;801;47.982;7.810;2023-01-26T13:18:53;98896.84;;;1.42;100.00
1616;BME280;801;47.982;7.810;2023-01-26T13:21:25;98896.75;;;1.57;100.00
1616;BME280;801;47.982;7.810;2023-01-26T13:23:54;98887.31;;;1.48;100.00
1616;BME280;801;47.982;7.810;2023-01-26T13:26:24;98894.31;;;1.62;100.00
1616;BME280;801;47.982;7.810;2023-01-26T13:29:29;98896.63;;;1.37;100.00
1616;BME280;801;47.982;7.810;2023-01-26T13:35:23;98899.06;;;1.11;100.00
1616;BME280;801;47.982;7.810;2023-01-26T13:37:55;98902.63;;;1.53;100.00
1616;BME280;801;47.982;7.810;2023-01-26T13:40:29;98901.25;;;1.07;100.00
1616;BME280;801;47.982;7.810;2023-01-26T13:42:59;98894.44;;;1.19;100.00
1616;BME280;801;47.982;7.810;2023-01-26T13:45:31;98902.09;;;1.08;100.00
1616;BME280;801;47.982;7.810;2023-01-26T13:48:00;98899.56;;;1.21;100.00
1616;BME280;801;47.982;7.810;2023-01-26T13:50:30;98895.84;;;1.43;100.00
1616;BME280;801;47.982;7.810;2023-01-26T13:52:58;98900.91;;;1.10;100.00
1616;BME280;801;47.982;7.810;2023-01-26T13:55:28;98901.66;;;1.04;100.00
1616;BME280;801;47.982;7.810;2023-01-26T13:58:12;98902.88;;;1.30;100.00
1616;BME280;801;47.982;7.810;2023-01-26T14:00:39;98899.03;;;1.32;100.00